createdAt,value
2023-01-05T00:00:13.949Z,2
2023-01-05T00:01:13.886Z,2
2023-01-05T00:02:17.513Z,2
2023-01-05T00:03:13.899Z,2
2023-01-05T00:04:13.982Z,3
2023-01-05T00:05:13.896Z,3
2023-01-05T00:06:13.863Z,3
2023-01-05T00:07:13.888Z,3
2023-01-05T00:08:13.918Z,3
2023-01-05T00:09:13.911Z,3
2023-01-05T00:10:13.875Z,3
2023-01-05T00:11:13.888Z,3
2023-01-05T00:12:13.882Z,2
2023-01-05T00:13:13.917Z,3
2023-01-05T00:14:13.869Z,3
2023-01-05T00:15:13.899Z,3
2023-01-05T00:16:13.889Z,2
2023-01-05T00:17:13.886Z,3
2023-01-05T00:18:13.920Z,2
2023-01-05T00:19:13.875Z,3
2023-01-05T00:20:13.880Z,3
2023-01-05T00:21:13.886Z,2
2023-01-05T00:22:13.870Z,3
2023-01-05T00:23:13.887Z,2
2023-01-05T00:24:13.874Z,2
2023-01-05T00:25:13.876Z,3
2023-01-05T00:26:14.183Z,2
2023-01-05T00:27:13.917Z,2
2023-01-05T00:28:13.903Z,3
2023-01-05T00:29:13.901Z,2
2023-01-05T00:30:13.927Z,2
2023-01-05T00:31:13.876Z,3
2023-01-05T00:32:13.875Z,3
2023-01-05T00:33:13.882Z,3
2023-01-05T00:34:13.886Z,2
2023-01-05T00:35:13.882Z,3
2023-01-05T00:36:13.884Z,2
2023-01-05T00:37:13.877Z,2
2023-01-05T00:38:13.893Z,2
2023-01-05T00:39:13.959Z,2
2023-01-05T00:40:13.893Z,3
2023-01-05T00:41:14.140Z,3
2023-01-05T00:42:13.879Z,3
2023-01-05T00:43:13.900Z,2
2023-01-05T00:44:13.890Z,2
2023-01-05T00:45:13.904Z,2
2023-01-05T00:46:13.917Z,2
2023-01-05T00:47:13.875Z,2
2023-01-05T00:48:13.892Z,2
2023-01-05T00:49:13.887Z,2
2023-01-05T00:50:13.892Z,2
2023-01-05T00:51:13.884Z,2
2023-01-05T00:52:13.890Z,2
2023-01-05T00:53:13.927Z,2
2023-01-05T00:54:13.886Z,3
2023-01-05T00:55:13.922Z,2
2023-01-05T00:56:14.113Z,3
2023-01-05T00:57:13.898Z,2
2023-01-05T00:58:13.944Z,2
2023-01-05T00:59:13.894Z,3
2023-01-05T01:00:13.878Z,3
2023-01-05T01:01:13.971Z,2
2023-01-05T01:02:14.021Z,2
2023-01-05T01:03:13.961Z,3
2023-01-05T01:04:13.872Z,2
2023-01-05T01:05:13.886Z,2
2023-01-05T01:06:13.883Z,2
2023-01-05T01:07:13.879Z,3
2023-01-05T01:08:13.900Z,3
2023-01-05T01:09:13.899Z,3
2023-01-05T01:10:13.886Z,2
2023-01-05T01:11:13.877Z,2
2023-01-05T01:12:14.030Z,3
2023-01-05T01:13:13.902Z,3
2023-01-05T01:14:13.961Z,3
2023-01-05T01:15:13.878Z,3
2023-01-05T01:16:13.896Z,2
2023-01-05T01:17:13.899Z,3
2023-01-05T01:18:13.902Z,2
2023-01-05T01:19:13.883Z,2
2023-01-05T01:20:13.889Z,2
2023-01-05T01:21:13.953Z,3
2023-01-05T01:22:13.915Z,2
2023-01-05T01:23:13.901Z,2
2023-01-05T01:24:13.870Z,2
2023-01-05T01:25:13.988Z,2
2023-01-05T01:26:13.910Z,2
2023-01-05T01:27:13.934Z,2
2023-01-05T01:28:13.908Z,2
2023-01-05T01:29:13.907Z,2
2023-01-05T01:30:13.927Z,2
2023-01-05T01:31:13.949Z,2
2023-01-05T01:32:13.879Z,2
2023-01-05T01:33:13.892Z,3
2023-01-05T01:34:13.917Z,3
2023-01-05T01:35:13.944Z,2
2023-01-05T01:36:13.875Z,3
2023-01-05T01:37:13.893Z,3
2023-01-05T01:38:14.079Z,3
2023-01-05T01:39:13.881Z,3
2023-01-05T01:40:13.881Z,3
2023-01-05T01:41:13.954Z,3
2023-01-05T01:42:13.878Z,2
2023-01-05T01:43:13.898Z,3
2023-01-05T01:44:13.891Z,3
2023-01-05T01:45:13.897Z,3
2023-01-05T01:46:14.022Z,2
2023-01-05T01:47:13.894Z,3
2023-01-05T01:48:13.887Z,3
2023-01-05T01:49:13.909Z,2
2023-01-05T01:50:13.880Z,3
2023-01-05T01:51:13.928Z,3
2023-01-05T01:52:13.893Z,3
2023-01-05T01:53:13.888Z,3
2023-01-05T01:54:13.888Z,2
2023-01-05T01:55:13.888Z,3
2023-01-05T01:56:13.891Z,3
2023-01-05T01:57:13.899Z,3
2023-01-05T01:58:13.902Z,3
2023-01-05T01:59:13.906Z,3
2023-01-05T02:00:13.896Z,2
2023-01-05T02:01:13.975Z,2
2023-01-05T02:02:13.973Z,3
2023-01-05T02:03:13.977Z,3
2023-01-05T02:04:13.925Z,3
2023-01-05T02:05:13.886Z,3
2023-01-05T02:56:56.467Z,3
2023-01-05T03:19:11.098Z,3
2023-01-05T03:22:53.506Z,3
2023-01-05T03:30:18.320Z,3
2023-01-05T03:32:46.596Z,3
2023-01-05T03:38:57.229Z,3
2023-01-05T03:40:11.352Z,3
2023-01-05T03:42:39.648Z,3
2023-01-05T03:48:50.304Z,3
2023-01-05T03:50:04.441Z,3
2023-01-05T11:31:52.737Z,5
2023-01-05T11:32:48.339Z,4
2023-01-05T11:33:44.001Z,5
2023-01-05T11:34:39.470Z,5
2023-01-05T11:35:35.029Z,6
2023-01-05T11:36:30.599Z,6
2023-01-05T11:37:26.197Z,4
2023-01-05T11:39:35.896Z,4
2023-01-05T11:41:29.047Z,3
2023-01-05T11:43:22.253Z,4
2023-01-05T11:44:36.352Z,5
2023-01-05T11:46:09.041Z,4
2023-01-05T11:46:48.189Z,6
2023-01-05T11:47:25.121Z,3
2023-01-05T11:48:02.180Z,5
2023-01-05T11:48:57.897Z,5
2023-01-05T11:49:58.371Z,6
2023-01-05T11:50:48.902Z,6
2023-01-05T11:51:44.484Z,4
2023-01-05T11:52:58.571Z,5
2023-01-05T11:53:58.243Z,4
2023-01-05T11:54:35.311Z,4
2023-01-05T11:55:13.908Z,5
2023-01-05T11:56:14.308Z,4
2023-01-05T11:57:13.925Z,3
2023-01-05T11:58:13.923Z,4
2023-01-05T11:59:13.928Z,4
2023-01-05T12:00:14.068Z,4
2023-01-05T12:01:13.988Z,5
2023-01-05T12:02:13.922Z,5
2023-01-05T12:03:14.013Z,5
2023-01-05T12:04:14.068Z,4
2023-01-05T12:05:13.936Z,5
2023-01-05T12:06:13.924Z,5
2023-01-05T12:07:13.940Z,4
2023-01-05T12:08:13.937Z,7
2023-01-05T12:09:14.107Z,6
2023-01-05T12:10:13.925Z,4
2023-01-05T12:11:14.155Z,4
2023-01-05T12:12:13.932Z,4
2023-01-05T12:13:13.936Z,5
2023-01-05T12:14:13.931Z,4
2023-01-05T12:15:13.981Z,4
2023-01-05T12:16:13.995Z,3
2023-01-05T12:17:13.950Z,4
2023-01-05T12:18:13.938Z,4
2023-01-05T12:19:13.946Z,3
2023-01-05T12:20:13.913Z,4
2023-01-05T12:21:13.941Z,3
2023-01-05T12:22:13.956Z,4
2023-01-05T12:23:13.926Z,4
2023-01-05T12:24:13.946Z,4
2023-01-05T12:25:13.943Z,4
2023-01-05T12:26:14.164Z,3
2023-01-05T12:27:13.966Z,4
2023-01-05T12:28:23.798Z,4
2023-01-05T12:30:26.910Z,4
2023-01-05T12:34:14.089Z,4
2023-01-05T12:35:14.047Z,3
2023-01-05T12:36:13.930Z,3
2023-01-05T12:37:13.938Z,3
2023-01-05T12:38:14.032Z,4
2023-01-05T12:39:13.960Z,3
2023-01-05T12:40:13.933Z,4
2023-01-05T12:41:13.988Z,4
2023-01-05T12:42:13.927Z,4
2023-01-05T12:43:13.962Z,4
2023-01-05T12:44:13.927Z,4
2023-01-05T12:45:13.952Z,4
2023-01-05T12:46:13.988Z,4
2023-01-05T12:47:13.951Z,4
2023-01-05T12:48:13.931Z,4
2023-01-05T12:49:13.960Z,6
2023-01-05T12:50:13.920Z,5
2023-01-05T12:51:13.944Z,4
2023-01-05T12:52:25.159Z,4
2023-01-05T12:53:41.132Z,4
2023-01-05T12:54:18.181Z,4
2023-01-05T12:55:13.934Z,4
2023-01-05T12:56:13.914Z,4
2023-01-05T12:57:13.934Z,3
2023-01-05T12:58:13.939Z,4
2023-01-05T12:59:13.944Z,4
2023-01-05T13:00:13.935Z,4
2023-01-05T13:01:13.975Z,4
2023-01-05T13:02:13.989Z,3
2023-01-05T13:03:13.977Z,5
2023-01-05T13:04:13.956Z,6
2023-01-05T13:05:13.911Z,5
2023-01-05T13:06:14.049Z,4
2023-01-05T13:07:13.946Z,4
2023-01-05T13:08:13.930Z,4
2023-01-05T13:09:13.938Z,4
2023-01-05T13:10:13.934Z,4
2023-01-05T13:11:13.920Z,5
2023-01-05T13:12:13.925Z,4
2023-01-05T13:13:13.945Z,6
2023-01-05T13:14:13.936Z,4
2023-01-05T13:15:13.930Z,4
2023-01-05T13:16:13.996Z,4
2023-01-05T13:17:13.922Z,4
2023-01-05T13:18:13.919Z,5
2023-01-05T13:19:13.947Z,5
2023-01-05T13:20:13.962Z,7
2023-01-05T13:21:15.272Z,5
2023-01-05T13:22:13.926Z,4
2023-01-05T13:23:13.935Z,4
2023-01-05T13:24:13.941Z,5
2023-01-05T13:25:13.958Z,4
2023-01-05T13:26:14.160Z,3
2023-01-05T13:27:13.925Z,4
2023-01-05T13:28:13.929Z,4
2023-01-05T13:29:13.933Z,4
2023-01-05T13:30:13.929Z,5
2023-01-05T13:31:13.981Z,4
2023-01-05T13:32:13.933Z,4
2023-01-05T13:33:13.931Z,4
2023-01-05T13:34:13.957Z,3
2023-01-05T13:35:13.935Z,3
2023-01-05T13:36:13.939Z,4
2023-01-05T13:38:13.931Z,4
2023-01-05T13:39:13.937Z,3
2023-01-05T13:40:13.952Z,3
2023-01-05T13:41:14.053Z,3
2023-01-05T13:42:13.925Z,4
2023-01-05T13:43:13.933Z,4
2023-01-05T13:44:13.944Z,4
2023-01-05T13:45:13.941Z,3
2023-01-05T13:46:13.998Z,3
2023-01-05T13:47:13.929Z,3
2023-01-05T13:48:14.001Z,4
2023-01-05T13:49:13.951Z,3
2023-01-05T13:50:13.941Z,4
2023-01-05T13:51:13.924Z,4
2023-01-05T13:52:13.936Z,4
2023-01-05T13:53:14.065Z,4
2023-01-05T13:54:13.976Z,4
2023-01-05T13:55:17.758Z,12
2023-01-05T13:56:13.926Z,18
2023-01-05T13:57:13.919Z,5
2023-01-05T13:58:13.940Z,5
2023-01-05T13:59:24.302Z,5
2023-01-05T14:00:13.954Z,8
2023-01-05T14:01:14.035Z,8
2023-01-05T14:02:13.969Z,6
2023-01-05T14:03:13.933Z,5
2023-01-05T14:04:14.014Z,4
2023-01-05T14:05:13.938Z,4
2023-01-05T14:06:13.940Z,4
2023-01-05T14:07:13.951Z,4
2023-01-05T14:08:13.928Z,4
2023-01-05T14:09:13.959Z,4
2023-01-05T14:10:13.973Z,4
2023-01-05T14:11:13.945Z,5
2023-01-05T14:12:14.000Z,5
2023-01-05T14:13:13.937Z,6
2023-01-05T14:14:13.926Z,6
2023-01-05T14:15:13.957Z,7
2023-01-05T14:16:14.025Z,9
2023-01-05T14:17:13.923Z,7
2023-01-05T14:18:13.978Z,6
2023-01-05T14:19:13.959Z,4
2023-01-05T14:20:13.948Z,4
2023-01-05T14:21:13.932Z,4
2023-01-05T14:22:13.924Z,4
2023-01-05T14:23:13.943Z,4
2023-01-05T14:24:14.057Z,4
2023-01-05T14:25:13.930Z,4
2023-01-05T14:26:14.010Z,5
2023-01-05T14:27:13.937Z,5
2023-01-05T14:28:13.940Z,4
2023-01-05T14:29:13.962Z,4
2023-01-05T14:30:13.939Z,4
2023-01-05T14:31:13.984Z,3
2023-01-05T14:32:13.937Z,4
2023-01-05T14:33:13.945Z,4
2023-01-05T14:34:13.945Z,3
2023-01-05T14:35:13.963Z,3
2023-01-05T14:36:13.937Z,4
2023-01-05T14:37:13.932Z,4
2023-01-05T14:38:13.935Z,3
2023-01-05T14:39:13.944Z,3
2023-01-05T14:40:13.982Z,4
2023-01-05T14:41:13.932Z,3
2023-01-05T14:42:13.957Z,4
2023-01-05T14:44:13.939Z,4
2023-01-05T14:45:13.952Z,3
2023-01-05T14:46:14.021Z,3
2023-01-05T14:47:13.947Z,3
2023-01-05T14:48:13.939Z,4
2023-01-05T14:49:13.942Z,4
2023-01-05T14:50:13.967Z,3
2023-01-05T14:51:13.931Z,4
2023-01-05T14:52:13.941Z,4
2023-01-05T14:53:13.980Z,3
2023-01-05T14:54:13.929Z,3
2023-01-05T14:55:33.368Z,3
2023-01-05T14:56:13.967Z,3
2023-01-05T14:57:13.946Z,3
2023-01-05T14:58:13.955Z,3
2023-01-05T14:59:13.939Z,3
2023-01-05T15:00:13.950Z,3
2023-01-05T15:03:14.061Z,3
2023-01-05T15:04:13.952Z,3
2023-01-05T15:05:13.942Z,3
2023-01-05T15:06:13.989Z,3
2023-01-05T15:07:13.944Z,4
2023-01-05T15:08:13.937Z,4
2023-01-05T15:09:13.945Z,3
2023-01-05T15:10:13.986Z,4
2023-01-05T15:11:13.963Z,4
2023-01-05T15:12:13.927Z,3
2023-01-05T15:13:23.949Z,3
2023-01-05T15:14:13.966Z,4
2023-01-05T15:15:13.998Z,3
2023-01-05T15:16:14.017Z,3
2023-01-05T15:17:13.933Z,3
2023-01-05T15:18:13.943Z,3
2023-01-05T15:19:13.940Z,3
2023-01-05T15:20:13.948Z,3
2023-01-05T15:23:13.945Z,3
2023-01-05T15:24:13.958Z,4
2023-01-05T15:25:13.935Z,4
2023-01-05T15:26:14.061Z,4
2023-01-05T15:27:13.936Z,4
2023-01-05T15:28:13.940Z,3
2023-01-05T15:29:13.930Z,3
2023-01-05T15:30:13.965Z,3
2023-01-05T15:31:13.936Z,5
2023-01-05T15:32:13.946Z,6
2023-01-05T15:33:13.957Z,6
2023-01-05T15:34:13.944Z,6
2023-01-05T15:35:13.948Z,6
2023-01-05T15:36:13.949Z,4
2023-01-05T15:37:13.978Z,5
2023-01-05T15:38:13.933Z,5
2023-01-05T15:39:13.936Z,5
2023-01-05T15:40:14.075Z,3
2023-01-05T15:41:13.944Z,4
2023-01-05T15:42:13.934Z,4
2023-01-05T15:43:13.920Z,4
2023-01-05T15:44:13.967Z,4
2023-01-05T15:45:13.989Z,4
2023-01-05T15:46:13.997Z,4
2023-01-05T15:47:13.950Z,4
2023-01-05T15:48:13.936Z,5
2023-01-05T15:49:13.939Z,4
2023-01-05T15:50:13.950Z,5
2023-01-05T15:51:14.470Z,4
2023-01-05T15:52:13.941Z,4
2023-01-05T15:53:14.170Z,4
2023-01-05T15:54:13.938Z,4
2023-01-05T15:55:13.964Z,4
2023-01-05T15:56:13.962Z,4
2023-01-05T15:57:14.072Z,4
2023-01-05T15:58:13.932Z,4
2023-01-05T15:59:13.929Z,4
2023-01-05T16:00:14.007Z,4
2023-01-05T16:01:14.032Z,4
2023-01-05T16:02:13.973Z,3
2023-01-05T16:03:13.931Z,4
2023-01-05T16:04:13.985Z,3
2023-01-05T16:05:13.969Z,3
2023-01-05T16:06:13.940Z,3
2023-01-05T16:07:13.943Z,3
2023-01-05T16:08:13.929Z,4
2023-01-05T16:09:13.948Z,4
2023-01-05T16:10:13.940Z,3
2023-01-05T16:11:13.948Z,3
2023-01-05T16:12:13.969Z,3
2023-01-05T16:13:29.464Z,3
2023-01-05T16:14:13.947Z,3
2023-01-05T16:15:13.952Z,3
2023-01-05T16:16:24.780Z,3
2023-01-05T16:17:13.962Z,3
2023-01-05T16:18:13.935Z,3
2023-01-05T16:19:13.944Z,3
2023-01-05T16:20:13.957Z,4
2023-01-05T16:21:13.936Z,4
2023-01-05T16:22:13.948Z,4
2023-01-05T16:23:30.096Z,4
2023-01-05T16:24:13.951Z,5
2023-01-05T16:25:13.944Z,4
2023-01-05T16:26:14.064Z,4
2023-01-05T16:27:13.942Z,4
2023-01-05T16:28:14.103Z,4
2023-01-05T16:29:13.954Z,3
2023-01-05T16:30:14.000Z,4
2023-01-05T16:31:13.996Z,4
2023-01-05T16:32:13.951Z,3
2023-01-05T16:33:13.950Z,4
2023-01-05T16:34:13.962Z,3
2023-01-05T16:35:13.992Z,4
2023-01-05T16:36:13.988Z,3
2023-01-05T16:37:13.955Z,4
2023-01-05T16:38:13.958Z,4
2023-01-05T16:39:13.951Z,4
2023-01-05T16:40:14.086Z,4
2023-01-05T16:41:14.183Z,4
2023-01-05T16:42:13.928Z,4
2023-01-05T16:43:13.962Z,4
2023-01-05T16:44:14.099Z,4
2023-01-05T16:45:13.955Z,4
2023-01-05T16:46:13.948Z,4
2023-01-05T16:47:13.933Z,3
2023-01-05T16:48:13.934Z,4
2023-01-05T16:49:13.962Z,3
2023-01-05T16:50:13.953Z,4
2023-01-05T16:51:13.928Z,4
2023-01-05T16:52:14.256Z,3
2023-01-05T16:53:13.946Z,3
2023-01-05T16:54:13.951Z,3
2023-01-05T16:55:16.982Z,3
2023-01-05T16:57:13.940Z,4
2023-01-05T16:58:13.954Z,3
2023-01-05T16:59:14.076Z,4
2023-01-05T17:00:13.991Z,5
2023-01-05T17:01:13.999Z,5
2023-01-05T17:02:13.955Z,5
2023-01-05T17:03:13.933Z,4
2023-01-05T17:04:13.984Z,6
2023-01-05T17:05:14.013Z,6
2023-01-05T17:06:13.946Z,6
2023-01-05T17:07:13.935Z,5
2023-01-05T17:08:13.938Z,4
2023-01-05T17:09:13.980Z,4
2023-01-05T17:10:13.965Z,4
2023-01-05T17:11:14.344Z,3
2023-01-05T17:12:13.956Z,3
2023-01-05T17:13:35.493Z,4
2023-01-05T17:14:13.953Z,4
2023-01-05T17:15:14.078Z,3
2023-01-05T17:16:14.029Z,3
2023-01-05T17:17:14.274Z,3
2023-01-05T17:18:13.976Z,3
2023-01-05T17:19:13.952Z,3
2023-01-05T17:20:13.953Z,4
2023-01-05T17:21:13.941Z,3
2023-01-05T17:22:13.958Z,3
2023-01-05T17:23:13.966Z,3
2023-01-05T17:24:13.937Z,4
2023-01-05T17:25:13.960Z,3
2023-01-05T17:26:13.954Z,4
2023-01-05T17:27:13.977Z,3
2023-01-05T17:29:13.943Z,3
2023-01-05T17:30:13.967Z,3
2023-01-05T17:32:13.975Z,3
2023-01-05T17:33:13.946Z,3
2023-01-05T17:34:13.939Z,3
2023-01-05T17:35:14.653Z,4
2023-01-05T17:37:13.943Z,4
2023-01-05T17:38:13.950Z,3
2023-01-05T17:39:13.960Z,3
2023-01-05T17:40:14.038Z,4
2023-01-05T17:41:15.835Z,4
2023-01-05T17:42:13.976Z,3
2023-01-05T17:43:13.955Z,4
2023-01-05T17:44:13.969Z,4
2023-01-05T17:45:13.951Z,3
2023-01-05T17:46:14.194Z,4
2023-01-05T17:47:13.953Z,3
2023-01-05T17:48:13.968Z,4
2023-01-05T17:49:13.959Z,4
2023-01-05T17:50:13.959Z,4
2023-01-05T17:51:13.990Z,4
2023-01-05T17:52:14.128Z,4
2023-01-05T17:53:13.963Z,4
2023-01-05T17:54:13.959Z,4
2023-01-05T17:55:13.958Z,4
2023-01-05T17:56:14.325Z,4
2023-01-05T17:57:13.974Z,4
2023-01-05T17:58:14.044Z,5
2023-01-05T17:59:13.952Z,5
2023-01-05T18:00:13.953Z,5
2023-01-05T18:01:14.009Z,6
2023-01-05T18:02:13.993Z,6
2023-01-05T18:03:13.936Z,5
2023-01-05T18:04:13.947Z,6
2023-01-05T18:05:13.961Z,6
2023-01-05T18:06:13.981Z,6
2023-01-05T18:07:14.011Z,5
2023-01-05T18:08:14.107Z,6
2023-01-05T18:09:13.935Z,6
2023-01-05T18:10:13.970Z,6
2023-01-05T18:11:14.807Z,5
2023-01-05T18:12:13.964Z,5
2023-01-05T18:13:25.005Z,5
2023-01-05T18:14:18.546Z,5
2023-01-05T18:15:13.961Z,5
2023-01-05T18:16:13.967Z,5
2023-01-05T18:17:14.068Z,5
2023-01-05T18:18:13.956Z,4
2023-01-05T18:20:13.958Z,6
2023-01-05T18:22:13.980Z,5
2023-01-05T18:23:13.960Z,6
2023-01-05T18:24:13.962Z,6
2023-01-05T18:25:13.962Z,5
2023-01-05T18:26:14.283Z,6
2023-01-05T18:27:13.968Z,6
2023-01-05T18:28:13.981Z,6
2023-01-05T18:29:13.958Z,5
2023-01-05T18:30:13.955Z,5
2023-01-05T18:31:13.960Z,5
2023-01-05T18:32:13.964Z,6
2023-01-05T18:33:13.979Z,5
2023-01-05T18:34:13.951Z,5
2023-01-05T18:35:13.991Z,5
2023-01-05T18:36:14.286Z,5
2023-01-05T18:37:21.504Z,5
2023-01-05T18:38:13.954Z,5
2023-01-05T18:39:13.954Z,5
2023-01-05T18:40:14.000Z,5
2023-01-05T18:41:14.176Z,5
2023-01-05T18:42:13.940Z,4
2023-01-05T18:43:13.958Z,4
2023-01-05T18:44:13.941Z,5
2023-01-05T18:45:19.621Z,5
2023-01-05T18:46:14.054Z,5
2023-01-05T18:47:13.957Z,5
2023-01-05T18:48:14.091Z,4
2023-01-05T18:49:13.956Z,5
2023-01-05T18:50:13.964Z,4
2023-01-05T18:51:13.972Z,4
2023-01-05T18:52:13.963Z,4
2023-01-05T18:53:13.960Z,4
2023-01-05T18:54:13.957Z,4
2023-01-05T18:55:13.961Z,4
2023-01-05T18:56:14.047Z,4
2023-01-05T18:57:13.958Z,4
2023-01-05T18:58:13.991Z,4
2023-01-05T18:59:13.962Z,4
2023-01-05T19:00:13.976Z,4
2023-01-05T19:01:13.949Z,4
2023-01-05T19:02:13.948Z,4
2023-01-05T19:03:13.961Z,4
2023-01-05T19:04:14.003Z,5
2023-01-05T19:05:13.989Z,5
2023-01-05T19:07:13.959Z,4
2023-01-05T19:08:13.962Z,5
2023-01-05T19:09:13.953Z,4
2023-01-05T19:10:13.955Z,5
2023-01-05T19:11:13.972Z,5
2023-01-05T19:12:13.943Z,5
2023-01-05T19:13:13.941Z,4
2023-01-05T19:14:13.956Z,5
2023-01-05T19:15:13.974Z,5
2023-01-05T19:16:14.094Z,5
2023-01-05T19:17:13.959Z,4
2023-01-05T19:18:13.956Z,5
2023-01-05T19:19:14.082Z,4
2023-01-05T19:20:13.960Z,5
2023-01-05T19:21:13.955Z,4
2023-01-05T19:22:13.960Z,5
2023-01-05T19:23:13.964Z,5
2023-01-05T19:24:32.172Z,4
2023-01-05T19:25:13.959Z,4
2023-01-05T19:26:13.998Z,5
2023-01-05T19:27:13.966Z,4
2023-01-05T19:28:13.949Z,5
2023-01-05T19:29:13.973Z,4
2023-01-05T19:30:13.949Z,4
2023-01-05T19:31:13.999Z,4
2023-01-05T19:32:13.955Z,4
2023-01-05T19:33:13.952Z,4
2023-01-05T19:34:13.959Z,4
2023-01-05T19:35:13.963Z,4
2023-01-05T19:36:13.956Z,4
2023-01-05T19:37:13.966Z,4
2023-01-05T19:38:13.963Z,4
2023-01-05T19:39:13.959Z,4
2023-01-05T19:41:13.955Z,4
2023-01-05T19:42:13.953Z,4
2023-01-05T19:43:13.945Z,3
2023-01-05T19:44:13.987Z,4
2023-01-05T19:45:13.984Z,4
2023-01-05T19:46:14.008Z,3
2023-01-05T19:47:13.943Z,5
2023-01-05T19:48:13.967Z,4
2023-01-05T19:49:13.948Z,4
2023-01-05T19:50:14.159Z,4
2023-01-05T19:51:13.960Z,4
2023-01-05T19:52:14.004Z,4
2023-01-05T19:53:13.989Z,4
2023-01-05T19:54:13.973Z,4
2023-01-05T19:55:13.964Z,4
2023-01-05T19:56:13.949Z,4
2023-01-05T19:57:13.972Z,4
2023-01-05T19:58:13.962Z,4
2023-01-05T19:59:13.955Z,4
2023-01-05T20:00:13.965Z,4
2023-01-05T20:01:13.975Z,4
2023-01-05T20:02:13.946Z,4
2023-01-05T20:03:14.096Z,4
2023-01-05T20:04:13.952Z,4
2023-01-05T20:05:14.112Z,4
2023-01-05T20:06:13.971Z,4
2023-01-05T20:07:13.951Z,4
2023-01-05T20:08:13.960Z,5
2023-01-05T20:09:13.957Z,5
2023-01-05T20:10:13.976Z,5
2023-01-05T20:11:13.962Z,5
2023-01-05T20:12:15.489Z,5
2023-01-05T20:13:13.955Z,4
2023-01-05T20:14:13.967Z,5
2023-01-05T20:15:13.984Z,4
2023-01-05T20:16:13.995Z,4
2023-01-05T20:17:13.973Z,4
2023-01-05T20:18:13.959Z,4
2023-01-05T20:19:13.949Z,4
2023-01-05T20:20:13.965Z,4
2023-01-05T20:21:14.169Z,4
2023-01-05T20:22:14.587Z,4
2023-01-05T20:23:13.981Z,4
2023-01-05T20:24:13.966Z,4
2023-01-05T20:25:13.966Z,5
2023-01-05T20:26:13.946Z,8
2023-01-05T20:27:13.957Z,5
2023-01-05T20:28:13.971Z,4
2023-01-05T20:29:13.964Z,4
2023-01-05T20:30:14.031Z,3
2023-01-05T20:31:14.009Z,3
2023-01-05T20:32:13.966Z,5
2023-01-05T20:33:13.953Z,5
2023-01-05T20:34:23.958Z,4
2023-01-05T20:35:13.988Z,4
2023-01-05T20:36:13.971Z,5
2023-01-05T20:37:13.956Z,4
2023-01-05T20:38:13.978Z,4
2023-01-05T20:39:13.951Z,3
2023-01-05T20:40:13.991Z,3
2023-01-05T20:41:13.972Z,3
2023-01-05T20:42:13.985Z,3
2023-01-05T20:43:13.958Z,4
2023-01-05T20:44:13.963Z,4
2023-01-05T20:45:15.358Z,3
2023-01-05T20:46:13.982Z,3
2023-01-05T20:47:13.950Z,3
2023-01-05T20:48:13.954Z,3
2023-01-05T20:49:14.029Z,3
2023-01-05T20:50:13.964Z,3
2023-01-05T20:51:13.952Z,4
2023-01-05T20:52:14.077Z,4
2023-01-05T20:53:13.987Z,5
2023-01-05T20:54:13.995Z,6
2023-01-05T20:55:13.969Z,5
2023-01-05T20:56:13.993Z,5
2023-01-05T20:57:13.954Z,4
2023-01-05T20:58:13.968Z,3
2023-01-05T20:59:13.971Z,2
2023-01-05T21:00:13.959Z,2
2023-01-05T21:01:14.078Z,2
2023-01-05T21:02:23.661Z,3
2023-01-05T21:03:13.968Z,3
2023-01-05T21:04:13.979Z,4
2023-01-05T21:05:13.971Z,3
2023-01-05T21:06:13.961Z,3
2023-01-05T21:07:13.963Z,3
2023-01-05T21:08:13.980Z,3
2023-01-05T21:10:13.964Z,3
2023-01-05T21:11:13.964Z,3
2023-01-05T21:12:14.160Z,3
2023-01-05T21:13:31.917Z,4
2023-01-05T21:14:13.945Z,7
2023-01-05T21:15:13.973Z,5
2023-01-05T21:16:14.010Z,10
2023-01-05T21:17:13.963Z,8
2023-01-05T21:18:13.969Z,9
2023-01-05T21:19:13.960Z,7
2023-01-05T21:20:13.990Z,7
2023-01-05T21:21:13.966Z,7
2023-01-05T21:22:13.950Z,5
2023-01-05T21:23:14.098Z,4
2023-01-05T21:24:13.976Z,3
2023-01-05T21:25:14.046Z,3
2023-01-05T21:26:14.701Z,3
2023-01-05T21:27:13.953Z,2
2023-01-05T21:28:13.969Z,3
2023-01-05T21:29:13.962Z,3
2023-01-05T21:30:13.996Z,2
2023-01-05T21:31:14.016Z,2
2023-01-05T21:32:13.964Z,3
2023-01-05T21:33:13.958Z,3
2023-01-05T21:34:29.454Z,3
2023-01-05T21:35:13.963Z,6
2023-01-05T21:36:13.963Z,6
2023-01-05T21:37:14.027Z,8
2023-01-05T21:38:13.963Z,6
2023-01-05T21:39:13.956Z,4
2023-01-05T21:40:14.165Z,4
2023-01-05T21:41:13.971Z,3
2023-01-05T21:42:13.977Z,3
2023-01-05T21:43:13.957Z,3
2023-01-05T21:44:13.969Z,3
2023-01-05T21:45:13.989Z,3
2023-01-05T21:46:14.028Z,3
2023-01-05T21:47:13.953Z,3
2023-01-05T21:48:13.956Z,3
2023-01-05T21:49:13.971Z,3
2023-01-05T21:50:13.980Z,3
2023-01-05T21:51:13.952Z,3
2023-01-05T21:52:13.985Z,3
2023-01-05T21:53:13.981Z,3
2023-01-05T21:54:14.078Z,3
2023-01-05T21:55:13.972Z,3
2023-01-05T21:56:13.969Z,3
2023-01-05T21:57:13.972Z,3
2023-01-05T21:58:13.950Z,3
2023-01-05T21:59:13.948Z,3
2023-01-05T22:00:14.114Z,3
2023-01-05T22:01:14.023Z,3
2023-01-05T22:02:14.016Z,3
2023-01-05T22:03:13.961Z,3
2023-01-05T22:04:13.992Z,3
2023-01-05T22:05:13.998Z,3
2023-01-05T22:06:13.977Z,3
2023-01-05T22:07:14.147Z,3
2023-01-05T22:08:13.969Z,3
2023-01-05T22:09:13.972Z,3
2023-01-05T22:10:13.980Z,3
2023-01-05T22:11:14.202Z,3
2023-01-05T22:12:13.973Z,3
2023-01-05T22:13:13.984Z,3
2023-01-05T22:14:13.960Z,3
2023-01-05T22:15:13.992Z,3
2023-01-05T22:16:13.958Z,3
2023-01-05T22:17:13.985Z,3
2023-01-05T22:18:13.962Z,3
2023-01-05T22:19:13.963Z,3
2023-01-05T22:20:13.974Z,3
2023-01-05T22:21:13.975Z,3
2023-01-05T22:22:13.962Z,3
2023-01-05T22:23:13.990Z,3
2023-01-05T22:24:13.950Z,3
2023-01-05T22:25:13.994Z,3
2023-01-05T22:26:14.238Z,3
2023-01-05T22:27:13.971Z,2
2023-01-05T22:28:13.965Z,3
2023-01-05T22:29:13.970Z,2
2023-01-05T22:30:13.970Z,3
2023-01-05T22:31:13.991Z,3
2023-01-05T22:32:13.973Z,2
2023-01-05T22:33:13.971Z,3
2023-01-05T22:34:35.458Z,3
2023-01-05T22:35:14.130Z,3
2023-01-05T22:36:13.969Z,3
2023-01-05T22:37:13.974Z,3
2023-01-05T22:38:13.985Z,2
2023-01-05T22:39:13.957Z,3
2023-01-05T22:40:14.080Z,3
2023-01-05T22:41:13.967Z,3
2023-01-05T22:42:13.964Z,3
2023-01-05T22:43:13.967Z,3
2023-01-05T22:44:13.988Z,3
2023-01-05T22:45:13.962Z,3
2023-01-05T22:46:14.062Z,3
2023-01-05T22:47:13.975Z,2
2023-01-05T22:48:13.969Z,2
2023-01-05T22:49:13.954Z,3
2023-01-05T22:50:13.971Z,2
2023-01-05T22:51:13.973Z,3
2023-01-05T22:52:13.982Z,2
2023-01-05T22:53:13.985Z,3
2023-01-05T22:54:13.985Z,3
2023-01-05T22:55:13.952Z,3
2023-01-05T22:56:14.110Z,3
2023-01-05T22:57:13.978Z,3
2023-01-05T22:58:13.988Z,2
2023-01-05T22:59:13.980Z,2
2023-01-05T23:00:14.005Z,2
2023-01-05T23:01:14.037Z,2
2023-01-05T23:02:14.039Z,2
2023-01-05T23:03:13.988Z,2
2023-01-05T23:04:14.016Z,3
2023-01-05T23:05:13.999Z,3
2023-01-05T23:06:14.007Z,2
2023-01-05T23:07:13.968Z,2
2023-01-05T23:08:14.026Z,2
2023-01-05T23:09:13.971Z,2
2023-01-05T23:10:13.973Z,2
2023-01-05T23:11:13.998Z,2
2023-01-05T23:12:13.980Z,2
2023-01-05T23:13:13.964Z,2
2023-01-05T23:14:13.968Z,3
2023-01-05T23:15:13.979Z,2
2023-01-05T23:16:14.050Z,2
2023-01-05T23:17:13.991Z,5
2023-01-05T23:18:13.960Z,26
2023-01-05T23:19:13.958Z,47
2023-01-05T23:20:13.997Z,44
2023-01-05T23:21:13.998Z,42
2023-01-05T23:22:13.968Z,35
2023-01-05T23:23:13.982Z,29
2023-01-05T23:24:13.975Z,24
2023-01-05T23:25:13.990Z,12
2023-01-05T23:26:13.984Z,9
2023-01-05T23:27:14.093Z,7
2023-01-05T23:28:13.973Z,6
2023-01-05T23:29:13.990Z,4
2023-01-05T23:30:13.957Z,4
2023-01-05T23:31:14.019Z,4
2023-01-05T23:32:13.974Z,4
2023-01-05T23:33:13.989Z,4
2023-01-05T23:34:24.999Z,3
2023-01-05T23:35:18.525Z,4
2023-01-05T23:36:13.980Z,4
2023-01-05T23:37:13.973Z,4
2023-01-05T23:38:13.964Z,4
2023-01-05T23:39:13.979Z,4
2023-01-05T23:40:14.019Z,4
2023-01-05T23:41:13.985Z,4
2023-01-05T23:42:13.960Z,4
2023-01-05T23:43:13.970Z,4
2023-01-05T23:44:13.994Z,4
2023-01-05T23:45:13.971Z,4
2023-01-05T23:46:14.114Z,4
2023-01-05T23:47:13.962Z,4
2023-01-05T23:48:13.974Z,4
2023-01-05T23:49:13.970Z,4
2023-01-05T23:50:13.975Z,4
2023-01-05T23:51:14.097Z,4
2023-01-05T23:52:13.963Z,4
2023-01-05T23:53:13.972Z,4
2023-01-05T23:54:14.017Z,4
2023-01-05T23:55:13.979Z,4
2023-01-05T23:56:13.965Z,4
2023-01-05T23:57:13.956Z,4
2023-01-05T23:58:14.087Z,5
2023-01-05T23:59:13.986Z,4
